createdAt,value
2022-11-25T00:01:13.306Z,2.80
2022-11-25T00:03:41.935Z,4.30
2022-11-25T00:06:10.390Z,2.80
2022-11-25T00:08:37.827Z,2.80
2022-11-25T00:11:05.598Z,2.60
2022-11-25T00:13:33.007Z,2.80
2022-11-25T00:16:08.588Z,4.90
2022-11-25T00:18:36.092Z,2.90
2022-11-25T00:21:14.720Z,2.80
2022-11-25T00:23:41.916Z,3.70
2022-11-25T00:26:14.303Z,2.90
2022-11-25T00:28:42.700Z,2.80
2022-11-25T00:31:13.628Z,2.80
2022-11-25T00:33:41.117Z,2.80
2022-11-25T00:36:16.856Z,2.80
2022-11-25T00:38:44.346Z,2.80
2022-11-25T00:41:30.041Z,2.80
2022-11-25T00:44:15.424Z,4.60
2022-11-25T00:46:42.467Z,2.60
2022-11-25T00:49:09.835Z,2.50
2022-11-25T00:51:36.834Z,2.70
2022-11-25T00:54:03.746Z,4.10
2022-11-25T00:56:30.638Z,2.80
2022-11-25T00:58:57.691Z,2.70
2022-11-25T01:01:25.364Z,2.70
2022-11-25T01:03:53.086Z,2.40
2022-11-25T01:06:22.104Z,2.60
2022-11-25T01:08:49.280Z,2.70
2022-11-25T01:11:18.758Z,2.70
2022-11-25T01:13:45.973Z,2.70
2022-11-25T01:16:15.786Z,2.60
2022-11-25T01:18:42.984Z,2.50
2022-11-25T01:21:13.453Z,2.60
2022-11-25T01:23:41.535Z,2.60
2022-11-25T01:26:11.348Z,2.50
2022-11-25T01:28:38.772Z,2.50
2022-11-25T01:31:10.845Z,2.50
2022-11-25T01:33:37.884Z,2.50
2022-11-25T01:36:06.930Z,2.50
2022-11-25T01:38:34.565Z,2.50
2022-11-25T01:41:02.348Z,2.50
2022-11-25T01:43:29.903Z,2.40
2022-11-25T01:46:20.150Z,2.40
2022-11-25T01:49:07.332Z,2.30
2022-11-25T01:51:41.074Z,2.30
2022-11-25T01:54:11.683Z,2.30
2022-11-25T01:56:46.290Z,2.30
2022-11-25T01:59:13.539Z,2.30
2022-11-25T02:01:40.351Z,2.30
2022-11-25T02:04:10.052Z,2.30
2022-11-25T02:06:42.522Z,2.30
2022-11-25T02:09:09.708Z,2.20
2022-11-25T02:11:41.791Z,2.20
2022-11-25T02:14:09.541Z,2.20
2022-11-25T02:16:36.252Z,2.20
2022-11-25T02:19:03.681Z,2.20
2022-11-25T02:21:38.650Z,2.10
2022-11-25T02:24:17.509Z,2.20
2022-11-25T02:26:44.556Z,2.20
2022-11-25T02:29:12.388Z,2.20
2022-11-25T02:31:39.144Z,2.20
2022-11-25T02:34:05.890Z,2.10
2022-11-25T02:36:34.192Z,2.60
2022-11-25T02:39:01.739Z,2.20
2022-11-25T02:41:54.170Z,2.20
2022-11-25T02:44:20.899Z,2.10
2022-11-25T02:46:47.770Z,2.10
2022-11-25T02:49:14.594Z,2.10
2022-11-25T02:51:44.438Z,2.10
2022-11-25T02:54:12.537Z,2.10
2022-11-25T02:56:40.285Z,2.00
2022-11-25T02:59:07.594Z,2.00
2022-11-25T03:01:35.476Z,2.00
2022-11-25T03:04:02.927Z,2.00
2022-11-25T03:06:30.497Z,2.00
2022-11-25T03:08:58.057Z,2.20
2022-11-25T03:11:43.642Z,2.00
2022-11-25T03:14:10.349Z,2.00
2022-11-25T03:16:37.166Z,2.00
2022-11-25T03:19:04.134Z,1.90
2022-11-25T03:21:30.829Z,1.90
2022-11-25T03:23:57.547Z,1.90
2022-11-25T03:26:26.007Z,1.90
2022-11-25T03:28:52.779Z,1.90
2022-11-25T03:31:19.755Z,1.90
2022-11-25T03:33:46.500Z,1.90
2022-11-25T03:36:13.178Z,1.90
2022-11-25T03:38:40.028Z,1.90
2022-11-25T03:41:07.021Z,1.90
2022-11-25T03:43:35.497Z,1.90
2022-11-25T03:46:02.309Z,3.40
2022-11-25T03:48:29.052Z,1.90
2022-11-25T03:50:55.977Z,1.90
2022-11-25T03:53:22.616Z,1.90
2022-11-25T03:55:49.321Z,1.90
2022-11-25T03:58:16.044Z,1.90
2022-11-25T04:00:42.736Z,1.90
2022-11-25T04:03:09.654Z,2.00
2022-11-25T04:05:36.339Z,1.90
2022-11-25T04:08:03.144Z,1.90
2022-11-25T04:10:29.896Z,2.00
2022-11-25T04:12:56.581Z,1.90
2022-11-25T04:15:23.484Z,2.00
2022-11-25T04:17:50.153Z,2.00
2022-11-25T04:20:17.314Z,2.00
2022-11-25T04:22:44.040Z,3.30
2022-11-25T04:25:10.816Z,2.00
2022-11-25T04:27:37.500Z,2.00
2022-11-25T04:30:05.467Z,2.00
2022-11-25T04:32:32.224Z,1.90
2022-11-25T04:34:59.023Z,2.00
2022-11-25T04:37:25.708Z,1.90
2022-11-25T04:39:52.402Z,1.90
2022-11-25T04:42:39.614Z,1.90
2022-11-25T04:45:33.335Z,1.90
2022-11-25T04:47:59.899Z,1.90
2022-11-25T04:50:26.627Z,2.30
2022-11-25T04:52:53.289Z,1.90
2022-11-25T04:55:20.292Z,1.90
2022-11-25T04:57:46.965Z,1.90
2022-11-25T05:00:14.141Z,1.90
2022-11-25T05:02:41.767Z,1.90
2022-11-25T05:05:09.244Z,1.80
2022-11-25T05:07:35.980Z,1.90
2022-11-25T05:10:02.921Z,1.90
2022-11-25T05:12:29.840Z,3.70
2022-11-25T05:14:56.995Z,1.80
2022-11-25T05:17:28.963Z,1.80
2022-11-25T05:19:55.861Z,1.70
2022-11-25T05:22:25.198Z,1.80
2022-11-25T05:24:52.108Z,1.80
2022-11-25T05:27:20.205Z,1.70
2022-11-25T05:29:50.222Z,1.70
2022-11-25T05:32:21.104Z,1.70
2022-11-25T05:34:47.747Z,1.70
2022-11-25T05:37:16.830Z,1.70
2022-11-25T05:39:46.565Z,1.70
2022-11-25T05:42:13.254Z,1.70
2022-11-25T05:44:40.011Z,1.80
2022-11-25T05:47:07.157Z,1.80
2022-11-25T05:49:33.807Z,1.80
2022-11-25T05:52:01.272Z,1.80
2022-11-25T05:54:27.986Z,1.70
2022-11-25T05:56:54.672Z,1.70
2022-11-25T05:59:21.386Z,1.70
2022-11-25T06:01:48.125Z,1.70
2022-11-25T06:04:14.774Z,1.70
2022-11-25T06:06:41.453Z,1.70
2022-11-25T06:09:08.211Z,1.70
2022-11-25T06:11:34.879Z,1.70
2022-11-25T06:14:01.639Z,1.70
2022-11-25T06:16:28.941Z,1.70
2022-11-25T06:18:55.804Z,1.70
2022-11-25T06:21:22.747Z,1.70
2022-11-25T06:23:49.416Z,1.70
2022-11-25T06:26:17.700Z,1.70
2022-11-25T06:28:45.265Z,1.70
2022-11-25T06:31:15.304Z,1.70
2022-11-25T06:33:42.495Z,1.70
2022-11-25T06:36:17.264Z,1.80
2022-11-25T06:38:49.373Z,2.40
2022-11-25T06:41:17.199Z,1.80
2022-11-25T06:43:44.249Z,1.80
2022-11-25T06:46:19.821Z,1.80
2022-11-25T06:48:51.088Z,1.80
2022-11-25T06:51:17.819Z,1.80
2022-11-25T06:53:44.973Z,1.70
2022-11-25T06:56:17.742Z,1.60
2022-11-25T06:58:45.153Z,1.60
2022-11-25T07:01:13.971Z,1.50
2022-11-25T07:03:41.608Z,1.50
2022-11-25T07:06:08.375Z,3.00
2022-11-25T07:08:35.106Z,1.60
2022-11-25T07:11:17.207Z,1.60
2022-11-25T07:13:44.359Z,1.60
2022-11-25T07:16:12.011Z,1.70
2022-11-25T07:18:40.920Z,1.70
2022-11-25T07:21:13.813Z,1.70
2022-11-25T07:23:41.648Z,1.70
2022-11-25T07:26:14.163Z,1.80
2022-11-25T07:28:41.431Z,1.80
2022-11-25T07:31:32.407Z,1.80
2022-11-25T07:34:06.353Z,1.80
2022-11-25T07:36:34.745Z,1.90
2022-11-25T07:39:04.458Z,1.90
2022-11-25T07:41:31.802Z,2.00
2022-11-25T07:44:01.158Z,2.00
2022-11-25T07:46:36.398Z,2.00
2022-11-25T07:49:09.956Z,2.10
2022-11-25T07:51:39.237Z,2.10
2022-11-25T07:54:09.076Z,2.10
2022-11-25T07:56:37.410Z,2.10
2022-11-25T07:59:04.900Z,2.20
2022-11-25T08:01:31.569Z,2.20
2022-11-25T08:03:58.736Z,2.30
2022-11-25T08:06:27.992Z,2.30
2022-11-25T08:08:57.339Z,2.30
2022-11-25T08:11:27.054Z,2.40
2022-11-25T08:13:54.051Z,2.40
2022-11-25T08:16:23.133Z,2.40
2022-11-25T08:18:50.321Z,2.40
2022-11-25T08:21:17.289Z,2.50
2022-11-25T08:23:47.484Z,2.50
2022-11-25T08:26:17.402Z,2.50
2022-11-25T08:28:44.323Z,2.50
2022-11-25T08:31:19.999Z,2.60
2022-11-25T08:33:47.966Z,2.60
2022-11-25T08:36:15.487Z,2.60
2022-11-25T08:38:43.280Z,2.70
2022-11-25T08:41:16.023Z,3.80
2022-11-25T08:43:43.131Z,2.70
2022-11-25T08:46:12.345Z,2.70
2022-11-25T08:48:39.624Z,2.70
2022-11-25T08:51:12.150Z,2.70
2022-11-25T08:53:40.112Z,2.80
2022-11-25T08:56:07.484Z,2.80
2022-11-25T08:58:35.191Z,3.10
2022-11-25T09:01:02.769Z,2.90
2022-11-25T09:03:33.713Z,2.90
2022-11-25T09:06:01.154Z,2.90
2022-11-25T09:08:27.946Z,2.90
2022-11-25T09:10:54.852Z,3.00
2022-11-25T09:13:21.575Z,3.00
2022-11-25T09:15:48.494Z,3.10
2022-11-25T09:18:15.678Z,3.10
2022-11-25T09:20:42.566Z,3.10
2022-11-25T09:23:09.292Z,3.10
2022-11-25T09:25:36.565Z,3.20
2022-11-25T09:28:04.069Z,3.20
2022-11-25T09:30:31.379Z,3.20
2022-11-25T09:32:58.226Z,3.20
2022-11-25T09:35:26.114Z,3.30
2022-11-25T09:37:53.040Z,3.30
2022-11-25T09:40:34.640Z,3.30
2022-11-25T09:43:30.355Z,3.30
2022-11-25T09:46:37.789Z,3.40
2022-11-25T09:49:12.517Z,3.40
2022-11-25T09:52:02.376Z,3.40
2022-11-25T09:54:42.917Z,3.50
2022-11-25T09:57:09.592Z,3.50
2022-11-25T09:59:46.423Z,3.50
2022-11-25T10:02:28.375Z,3.60
2022-11-25T10:05:06.398Z,3.60
2022-11-25T10:07:46.970Z,3.60
2022-11-25T10:10:27.579Z,3.70
2022-11-25T10:12:57.529Z,3.70
2022-11-25T10:15:32.659Z,3.70
2022-11-25T10:18:19.031Z,3.80
2022-11-25T10:20:49.545Z,3.80
2022-11-25T10:23:28.071Z,3.80
2022-11-25T10:26:10.553Z,3.90
2022-11-25T10:28:40.021Z,3.90
2022-11-25T10:31:22.954Z,3.90
2022-11-25T10:33:49.791Z,4.00
2022-11-25T10:36:23.192Z,5.20
2022-11-25T10:39:01.080Z,4.10
2022-11-25T10:41:33.172Z,4.10
2022-11-25T10:43:59.896Z,4.10
2022-11-25T10:47:10.989Z,4.20
2022-11-25T10:49:42.143Z,4.20
2022-11-25T10:52:14.124Z,4.30
2022-11-25T10:54:41.618Z,4.30
2022-11-25T10:57:20.449Z,4.40
2022-11-25T10:59:58.658Z,4.40
2022-11-25T11:02:37.092Z,4.40
2022-11-25T11:05:09.621Z,4.40
2022-11-25T11:07:42.480Z,4.50
2022-11-25T11:10:22.890Z,4.50
2022-11-25T11:12:57.557Z,4.50
2022-11-25T11:15:31.599Z,4.60
2022-11-25T11:18:01.658Z,4.60
2022-11-25T11:20:30.465Z,4.60
2022-11-25T11:23:08.403Z,4.60
2022-11-25T11:25:43.658Z,4.60
2022-11-25T11:28:36.188Z,4.60
2022-11-25T11:31:08.026Z,4.60
2022-11-25T11:33:49.168Z,4.60
2022-11-25T11:36:53.355Z,4.50
2022-11-25T11:39:50.670Z,4.50
2022-11-25T11:42:35.264Z,4.60
2022-11-25T11:45:32.313Z,4.60
2022-11-25T11:48:18.349Z,4.60
2022-11-25T11:50:51.198Z,4.60
2022-11-25T11:53:54.848Z,4.60
2022-11-25T11:56:42.476Z,4.70
2022-11-25T11:59:27.810Z,4.60
2022-11-25T12:02:13.081Z,5.00
2022-11-25T12:04:46.978Z,4.60
2022-11-25T12:07:29.071Z,4.70
2022-11-25T12:10:01.283Z,4.70
2022-11-25T12:13:13.660Z,4.70
2022-11-25T12:15:46.867Z,4.70
2022-11-25T12:18:40.854Z,4.80
2022-11-25T12:21:24.229Z,4.80
2022-11-25T12:24:18.661Z,4.90
2022-11-25T12:27:06.281Z,4.90
2022-11-25T12:29:54.243Z,4.80
2022-11-25T12:32:39.768Z,4.90
2022-11-25T12:35:30.680Z,4.90
2022-11-25T12:38:08.646Z,4.90
2022-11-25T12:40:48.071Z,4.90
2022-11-25T12:43:40.948Z,5.70
2022-11-25T12:46:13.911Z,5.00
2022-11-25T12:48:43.112Z,5.10
2022-11-25T12:51:18.977Z,5.10
2022-11-25T12:54:11.568Z,5.10
2022-11-25T12:57:13.852Z,5.00
2022-11-25T13:00:39.758Z,5.00
2022-11-25T13:03:27.777Z,5.00
2022-11-25T13:06:21.612Z,4.00
2022-11-25T13:09:18.791Z,5.10
2022-11-25T13:12:23.657Z,5.10
2022-11-25T13:15:33.367Z,5.10
2022-11-25T13:18:11.687Z,5.10
2022-11-25T13:21:12.388Z,5.10
2022-11-25T13:23:53.217Z,5.10
2022-11-25T13:26:28.978Z,5.10
2022-11-25T13:28:56.935Z,5.10
2022-11-25T13:31:35.503Z,5.10
2022-11-25T13:34:21.181Z,5.10
2022-11-25T13:36:50.658Z,5.10
2022-11-25T13:39:39.274Z,5.10
2022-11-25T13:42:27.112Z,5.10
2022-11-25T13:44:59.522Z,5.10
2022-11-25T13:47:35.473Z,5.10
2022-11-25T13:50:21.568Z,5.10
2022-11-25T13:52:50.623Z,5.10
2022-11-25T13:55:17.313Z,6.00
2022-11-25T13:57:49.640Z,5.00
2022-11-25T14:00:19.448Z,5.00
2022-11-25T14:02:49.485Z,4.90
2022-11-25T14:05:31.708Z,4.90
2022-11-25T14:08:20.108Z,4.90
2022-11-25T14:11:04.599Z,4.90
2022-11-25T14:13:59.319Z,4.90
2022-11-25T14:16:46.234Z,4.90
2022-11-25T14:20:07.573Z,4.90
2022-11-25T14:23:11.393Z,4.90
2022-11-25T14:25:51.408Z,4.90
2022-11-25T14:28:27.434Z,5.60
2022-11-25T14:31:00.889Z,4.90
2022-11-25T14:33:36.505Z,4.90
2022-11-25T14:36:12.897Z,4.90
2022-11-25T14:39:24.860Z,4.90
2022-11-25T14:42:10.401Z,5.00
2022-11-25T14:44:53.513Z,4.90
2022-11-25T14:47:25.173Z,4.90
2022-11-25T14:50:18.934Z,4.90
2022-11-25T14:52:44.100Z,4.90
2022-11-25T14:55:12.090Z,6.60
2022-11-25T14:57:43.730Z,4.90
2022-11-25T15:00:16.153Z,5.50
2022-11-25T15:02:57.542Z,4.90
2022-11-25T15:05:36.810Z,4.90
2022-11-25T15:08:25.428Z,4.90
2022-11-25T15:11:01.931Z,4.90
2022-11-25T15:13:58.512Z,4.90
2022-11-25T15:16:33.306Z,4.90
2022-11-25T15:19:05.313Z,4.90
2022-11-25T15:21:53.842Z,4.90
2022-11-25T15:24:27.662Z,4.80
2022-11-25T15:27:01.179Z,4.80
2022-11-25T15:29:29.530Z,4.80
2022-11-25T15:31:58.317Z,4.80
2022-11-25T15:34:25.881Z,5.70
2022-11-25T15:36:54.368Z,6.10
2022-11-25T15:39:21.391Z,4.80
2022-11-25T15:41:55.098Z,4.80
2022-11-25T15:44:30.698Z,4.80
2022-11-25T15:47:02.052Z,4.80
2022-11-25T15:49:29.935Z,5.30
2022-11-25T15:52:05.199Z,5.70
2022-11-25T15:54:38.017Z,4.80
2022-11-25T15:57:18.060Z,5.60
2022-11-25T15:59:53.691Z,4.80
2022-11-25T16:02:41.923Z,4.70
2022-11-25T16:05:28.144Z,4.60
2022-11-25T16:07:54.868Z,4.70
2022-11-25T16:10:31.564Z,4.60
2022-11-25T16:13:23.846Z,4.60
2022-11-25T16:16:13.114Z,4.60
2022-11-25T16:19:04.901Z,4.00
2022-11-25T16:21:40.608Z,4.60
2022-11-25T16:24:26.727Z,4.60
2022-11-25T16:26:57.814Z,4.60
2022-11-25T16:29:34.646Z,4.60
2022-11-25T16:32:10.918Z,4.60
2022-11-25T16:34:38.206Z,4.30
2022-11-25T16:37:05.117Z,4.50
2022-11-25T16:39:31.804Z,4.60
2022-11-25T16:42:02.519Z,6.10
2022-11-25T16:44:30.195Z,4.60
2022-11-25T16:46:57.876Z,4.50
2022-11-25T16:49:26.381Z,5.20
2022-11-25T16:51:54.336Z,4.50
2022-11-25T16:54:22.635Z,4.60
2022-11-25T16:56:53.017Z,4.60
2022-11-25T16:59:39.443Z,4.60
2022-11-25T17:02:19.404Z,4.50
2022-11-25T17:04:47.032Z,4.50
2022-11-25T17:07:33.214Z,4.40
2022-11-25T17:10:00.351Z,4.40
2022-11-25T17:12:32.282Z,4.40
2022-11-25T17:14:59.965Z,4.40
2022-11-25T17:17:27.758Z,4.30
2022-11-25T17:19:54.715Z,4.40
2022-11-25T17:22:24.565Z,4.40
2022-11-25T17:24:51.435Z,4.40
2022-11-25T17:27:26.172Z,4.40
2022-11-25T17:29:54.270Z,4.40
2022-11-25T17:32:21.469Z,4.40
2022-11-25T17:34:48.414Z,4.30
2022-11-25T17:37:23.866Z,4.30
2022-11-25T17:39:52.776Z,4.30
2022-11-25T17:42:32.905Z,4.30
2022-11-25T17:45:00.498Z,4.30
2022-11-25T17:47:27.425Z,4.30
2022-11-25T17:49:54.456Z,4.30
2022-11-25T17:52:21.220Z,4.30
2022-11-25T17:54:47.954Z,4.30
2022-11-25T17:57:19.775Z,4.30
2022-11-25T17:59:46.542Z,4.30
2022-11-25T18:02:18.511Z,4.30
2022-11-25T18:04:45.647Z,4.30
2022-11-25T18:07:12.358Z,4.30
2022-11-25T18:09:39.240Z,4.30
2022-11-25T18:12:27.923Z,4.30
2022-11-25T18:14:55.767Z,4.30
2022-11-25T18:17:23.012Z,4.30
2022-11-25T18:19:54.647Z,4.30
2022-11-25T18:22:24.026Z,5.60
2022-11-25T18:24:51.524Z,4.30
2022-11-25T18:27:27.307Z,4.40
2022-11-25T18:29:55.301Z,4.40
2022-11-25T18:32:23.445Z,4.30
2022-11-25T18:34:51.492Z,4.40
2022-11-25T18:37:18.284Z,4.40
2022-11-25T18:39:45.159Z,4.40
2022-11-25T18:42:26.599Z,4.40
2022-11-25T18:44:56.270Z,4.40
2022-11-25T18:47:23.309Z,4.50
2022-11-25T18:49:55.489Z,4.40
2022-11-25T18:52:23.920Z,4.50
2022-11-25T18:54:50.733Z,4.50
2022-11-25T18:57:17.475Z,4.50
2022-11-25T18:59:44.855Z,4.50
2022-11-25T19:02:16.963Z,4.50
2022-11-25T19:04:44.441Z,4.50
2022-11-25T19:07:11.222Z,4.40
2022-11-25T19:09:38.050Z,4.70
2022-11-25T19:12:05.519Z,4.50
2022-11-25T19:14:37.612Z,4.50
2022-11-25T19:17:08.453Z,4.50
2022-11-25T19:19:37.881Z,4.50
2022-11-25T19:22:11.363Z,4.90
2022-11-25T19:24:38.381Z,4.50
2022-11-25T19:27:05.265Z,4.50
2022-11-25T19:29:41.745Z,4.40
2022-11-25T19:32:19.040Z,4.40
2022-11-25T19:34:49.928Z,4.40
2022-11-25T19:37:22.060Z,4.40
2022-11-25T19:39:53.061Z,4.40
2022-11-25T19:42:19.836Z,5.00
2022-11-25T19:44:47.286Z,4.50
2022-11-25T19:47:24.399Z,4.50
2022-11-25T19:49:54.043Z,4.50
2022-11-25T19:52:23.707Z,4.40
2022-11-25T19:54:50.408Z,4.50
2022-11-25T19:57:20.299Z,4.50
2022-11-25T19:59:47.314Z,4.50
2022-11-25T20:02:19.224Z,4.50
2022-11-25T20:04:48.082Z,4.50
2022-11-25T20:07:18.064Z,4.50
2022-11-25T20:09:45.087Z,4.50
2022-11-25T20:12:28.806Z,4.50
2022-11-25T20:14:56.041Z,4.50
2022-11-25T20:17:22.684Z,4.50
2022-11-25T20:19:49.938Z,4.50
2022-11-25T20:22:21.055Z,4.50
2022-11-25T20:24:47.830Z,5.30
2022-11-25T20:27:16.105Z,4.70
2022-11-25T20:29:42.810Z,4.50
2022-11-25T20:32:24.742Z,4.50
2022-11-25T20:34:51.506Z,4.50
2022-11-25T20:37:23.874Z,4.50
2022-11-25T20:39:56.071Z,4.50
2022-11-25T20:42:23.937Z,4.50
2022-11-25T20:44:54.648Z,4.50
2022-11-25T20:47:26.354Z,4.50
2022-11-25T20:49:53.901Z,4.80
2022-11-25T20:52:31.932Z,4.50
2022-11-25T20:54:59.964Z,4.90
2022-11-25T20:57:26.795Z,4.50
2022-11-25T20:59:53.539Z,4.60
2022-11-25T21:02:21.540Z,4.50
2022-11-25T21:04:48.436Z,5.40
2022-11-25T21:07:17.780Z,4.50
2022-11-25T21:09:44.616Z,4.50
2022-11-25T21:12:19.144Z,4.50
2022-11-25T21:14:47.523Z,4.50
2022-11-25T21:17:14.352Z,4.50
2022-11-25T21:19:41.043Z,4.40
2022-11-25T21:22:13.419Z,4.40
2022-11-25T21:24:41.577Z,4.40
2022-11-25T21:27:16.153Z,4.40
2022-11-25T21:29:44.143Z,4.40
2022-11-25T21:32:26.350Z,4.40
2022-11-25T21:34:53.901Z,4.40
2022-11-25T21:37:40.758Z,4.40
2022-11-25T21:40:17.444Z,4.40
2022-11-25T21:42:44.370Z,4.40
2022-11-25T21:45:15.929Z,4.40
2022-11-25T21:47:42.940Z,5.90
2022-11-25T21:50:17.686Z,4.40
2022-11-25T21:52:44.485Z,4.40
2022-11-25T21:55:17.604Z,4.40
2022-11-25T21:57:44.665Z,4.40
2022-11-25T22:00:24.240Z,5.10
2022-11-25T22:02:51.249Z,4.40
2022-11-25T22:05:20.417Z,4.40
2022-11-25T22:07:47.608Z,4.40
2022-11-25T22:10:16.217Z,4.40
2022-11-25T22:12:45.855Z,4.40
2022-11-25T22:15:20.188Z,4.40
2022-11-25T22:17:47.182Z,4.40
2022-11-25T22:20:39.053Z,5.10
2022-11-25T22:23:15.113Z,4.40
2022-11-25T22:25:41.992Z,4.40
2022-11-25T22:28:13.565Z,4.40
2022-11-25T22:30:40.810Z,5.30
2022-11-25T22:33:10.821Z,4.40
2022-11-25T22:35:37.571Z,4.40
2022-11-25T22:38:12.594Z,4.40
2022-11-25T22:40:39.747Z,4.40
2022-11-25T22:43:07.893Z,4.40
2022-11-25T22:45:35.023Z,4.40
2022-11-25T22:48:05.283Z,4.40
2022-11-25T22:50:33.816Z,4.40
2022-11-25T22:53:01.638Z,4.50
2022-11-25T22:55:31.386Z,4.40
2022-11-25T22:58:00.180Z,4.40
2022-11-25T23:00:34.242Z,4.50
2022-11-25T23:03:02.715Z,4.40
2022-11-25T23:05:33.855Z,4.50
2022-11-25T23:08:22.962Z,4.50
2022-11-25T23:10:51.492Z,4.50
2022-11-25T23:13:20.411Z,4.50
2022-11-25T23:15:57.401Z,4.70
2022-11-25T23:18:24.025Z,4.40
2022-11-25T23:20:50.802Z,4.50
2022-11-25T23:23:23.255Z,4.40
2022-11-25T23:25:50.460Z,4.40
2022-11-25T23:28:17.721Z,4.50
2022-11-25T23:30:55.365Z,4.50
2022-11-25T23:33:38.594Z,4.50
2022-11-25T23:36:10.396Z,4.40
2022-11-25T23:38:51.154Z,4.50
2022-11-25T23:41:25.851Z,4.50
2022-11-25T23:43:53.375Z,4.50
2022-11-25T23:46:23.983Z,4.50
2022-11-25T23:48:57.564Z,4.50
2022-11-25T23:51:26.312Z,4.50
2022-11-25T23:53:54.271Z,4.50
2022-11-25T23:56:21.196Z,4.50
2022-11-25T23:58:49.524Z,4.50
